createdAt,value
2018-10-16T00:01:27.901Z,99.90
2018-10-16T00:03:56.245Z,99.90
2018-10-16T00:06:24.629Z,99.90
2018-10-16T00:08:52.983Z,99.90
2018-10-16T00:11:22.121Z,99.90
2018-10-16T00:13:50.470Z,99.90
2018-10-16T00:16:18.816Z,99.90
2018-10-16T00:18:47.165Z,99.90
2018-10-16T00:21:15.553Z,99.90
2018-10-16T00:23:43.930Z,99.90
2018-10-16T00:26:12.291Z,99.90
2018-10-16T00:28:40.674Z,99.90
2018-10-16T00:31:09.034Z,99.90
2018-10-16T00:33:37.510Z,99.90
2018-10-16T00:36:05.858Z,99.90
2018-10-16T00:38:34.210Z,99.90
2018-10-16T00:41:02.648Z,99.90
2018-10-16T00:43:31.001Z,99.90
2018-10-16T00:46:00.124Z,99.90
2018-10-16T00:48:28.489Z,99.90
2018-10-16T00:50:57.628Z,99.90
2018-10-16T00:53:25.977Z,99.90
2018-10-16T00:55:54.382Z,99.90
2018-10-16T00:58:22.738Z,99.90
2018-10-16T01:00:51.113Z,99.90
2018-10-16T01:03:19.469Z,99.90
2018-10-16T01:05:47.817Z,99.90
2018-10-16T01:08:16.196Z,99.90
2018-10-16T01:10:44.528Z,99.90
2018-10-16T01:13:12.914Z,99.90
2018-10-16T01:15:42.004Z,99.90
2018-10-16T01:18:10.386Z,99.90
2018-10-16T01:20:38.763Z,99.90
2018-10-16T01:23:07.161Z,99.90
2018-10-16T01:25:35.520Z,99.90
2018-10-16T01:28:03.932Z,99.90
2018-10-16T01:30:32.255Z,99.90
2018-10-16T01:33:01.442Z,99.90
2018-10-16T01:35:29.828Z,99.90
2018-10-16T01:37:58.231Z,99.90
2018-10-16T01:40:26.583Z,99.90
2018-10-16T01:42:55.117Z,99.90
2018-10-16T01:45:23.442Z,99.90
2018-10-16T01:47:51.797Z,99.90
2018-10-16T01:50:20.143Z,99.90
2018-10-16T01:52:48.495Z,99.90
2018-10-16T01:55:16.909Z,99.90
2018-10-16T01:57:45.267Z,99.90
2018-10-16T02:00:13.647Z,99.90
2018-10-16T02:02:42.068Z,99.90
2018-10-16T02:05:10.497Z,99.90
2018-10-16T02:07:38.836Z,99.90
2018-10-16T02:10:07.248Z,99.90
2018-10-16T02:12:36.365Z,99.90
2018-10-16T02:15:04.734Z,99.90
2018-10-16T02:17:33.879Z,99.90
2018-10-16T02:20:02.237Z,99.90
2018-10-16T02:22:30.599Z,99.90
2018-10-16T02:24:59.741Z,99.90
2018-10-16T02:27:28.140Z,99.90
2018-10-16T02:29:56.472Z,99.90
2018-10-16T02:32:24.862Z,99.90
2018-10-16T02:34:53.216Z,99.90
2018-10-16T02:37:21.596Z,99.90
2018-10-16T02:39:49.928Z,99.90
2018-10-16T02:42:18.266Z,99.90
2018-10-16T02:44:46.662Z,99.90
2018-10-16T02:47:15.102Z,99.90
2018-10-16T02:49:44.217Z,99.90
2018-10-16T02:52:12.568Z,99.90
2018-10-16T02:54:41.684Z,99.90
2018-10-16T02:57:10.060Z,99.90
2018-10-16T02:59:39.200Z,99.90
2018-10-16T03:02:07.552Z,99.90
2018-10-16T03:04:35.936Z,99.90
2018-10-16T03:07:04.328Z,99.90
2018-10-16T03:09:32.681Z,99.90
2018-10-16T03:12:01.030Z,99.90
2018-10-16T03:14:30.150Z,99.90
2018-10-16T03:16:58.533Z,99.90
2018-10-16T03:19:26.868Z,99.90
2018-10-16T03:21:55.253Z,99.90
2018-10-16T03:24:23.586Z,99.90
2018-10-16T03:26:51.985Z,99.90
2018-10-16T03:29:20.375Z,99.90
2018-10-16T03:31:48.807Z,99.90
2018-10-16T03:34:17.195Z,99.90
2018-10-16T03:36:45.570Z,99.90
2018-10-16T03:39:13.959Z,99.90
2018-10-16T03:41:42.365Z,99.90
2018-10-16T03:44:10.703Z,99.90
2018-10-16T03:46:39.099Z,99.90
2018-10-16T03:49:07.464Z,99.90
2018-10-16T03:51:35.855Z,99.90
2018-10-16T03:54:04.301Z,99.90
2018-10-16T03:56:32.637Z,99.90
2018-10-16T03:59:01.087Z,99.90
2018-10-16T04:01:29.443Z,99.90
2018-10-16T04:03:57.811Z,99.90
2018-10-16T04:06:26.274Z,99.90
2018-10-16T04:08:54.607Z,99.90
2018-10-16T04:11:22.949Z,99.90
2018-10-16T04:13:51.396Z,99.90
2018-10-16T04:16:19.694Z,99.90
2018-10-16T04:18:48.088Z,99.90
2018-10-16T04:21:16.444Z,99.90
2018-10-16T04:23:44.817Z,99.90
2018-10-16T04:26:13.165Z,99.90
2018-10-16T04:28:41.533Z,99.90
2018-10-16T04:31:10.652Z,99.90
2018-10-16T04:33:39.026Z,99.90
2018-10-16T04:36:07.431Z,99.90
2018-10-16T04:38:36.622Z,99.90
2018-10-16T04:41:04.953Z,99.90
2018-10-16T04:43:33.345Z,99.90
2018-10-16T04:46:01.727Z,99.90
2018-10-16T04:48:30.103Z,99.90
2018-10-16T04:50:58.481Z,99.90
2018-10-16T04:53:27.703Z,99.90
2018-10-16T04:55:56.164Z,99.90
2018-10-16T04:58:25.272Z,99.90
2018-10-16T05:00:53.623Z,99.90
2018-10-16T05:03:21.991Z,99.90
2018-10-16T05:05:50.400Z,99.90
2018-10-16T05:08:18.903Z,99.90
2018-10-16T05:10:47.269Z,99.90
2018-10-16T05:13:15.959Z,99.90
2018-10-16T05:15:44.257Z,99.90
2018-10-16T05:18:12.659Z,99.90
2018-10-16T05:20:41.041Z,99.90
2018-10-16T05:23:09.613Z,99.90
2018-10-16T05:25:37.973Z,99.90
2018-10-16T05:28:07.945Z,99.90
2018-10-16T05:30:37.305Z,99.90
2018-10-16T05:33:05.641Z,99.90
2018-10-16T05:35:34.019Z,99.90
2018-10-16T05:38:02.388Z,99.90
2018-10-16T05:40:31.506Z,99.90
2018-10-16T05:43:00.618Z,99.90
2018-10-16T05:45:28.985Z,99.90
2018-10-16T05:47:57.379Z,99.90
2018-10-16T05:50:25.739Z,99.90
2018-10-16T05:52:54.113Z,99.90
2018-10-16T05:55:22.475Z,99.90
2018-10-16T05:57:51.632Z,99.90
2018-10-16T06:00:27.724Z,99.90
2018-10-16T06:02:56.380Z,99.90
2018-10-16T06:05:24.734Z,99.90
2018-10-16T06:07:53.080Z,99.90
2018-10-16T06:10:22.268Z,99.90
2018-10-16T06:12:50.603Z,99.90
2018-10-16T06:15:19.014Z,99.90
2018-10-16T06:17:47.406Z,99.90
2018-10-16T06:20:16.721Z,99.90
2018-10-16T06:22:45.123Z,99.90
2018-10-16T06:25:13.506Z,99.90
2018-10-16T06:27:41.947Z,99.90
2018-10-16T06:30:10.267Z,99.90
2018-10-16T06:32:38.633Z,99.90
2018-10-16T06:35:07.804Z,99.90
2018-10-16T06:37:36.269Z,99.90
2018-10-16T06:40:04.767Z,99.90
2018-10-16T06:42:34.045Z,99.90
2018-10-16T06:45:02.587Z,99.90
2018-10-16T06:47:31.003Z,99.90
2018-10-16T06:50:00.390Z,99.90
2018-10-16T06:52:35.769Z,99.90
2018-10-16T06:55:05.197Z,99.90
2018-10-16T06:57:34.933Z,99.90
2018-10-16T07:00:03.311Z,99.90
2018-10-16T07:02:31.724Z,99.90
2018-10-16T07:05:00.157Z,99.90
2018-10-16T07:07:29.264Z,99.90
2018-10-16T07:09:57.655Z,99.90
2018-10-16T07:12:26.023Z,99.90
2018-10-16T07:14:54.422Z,99.90
2018-10-16T07:17:22.898Z,99.90
2018-10-16T07:19:51.291Z,99.90
2018-10-16T07:22:19.641Z,99.90
2018-10-16T07:24:48.052Z,99.90
2018-10-16T07:27:16.553Z,99.90
2018-10-16T07:29:44.936Z,99.90
2018-10-16T07:32:13.417Z,99.90
2018-10-16T07:34:41.776Z,99.90
2018-10-16T07:37:10.186Z,99.90
2018-10-16T07:39:38.520Z,99.90
2018-10-16T07:42:06.904Z,99.90
2018-10-16T07:44:36.043Z,99.90
2018-10-16T07:47:05.184Z,99.90
2018-10-16T07:49:33.591Z,99.90
2018-10-16T07:52:01.928Z,99.90
2018-10-16T07:54:30.308Z,99.90
2018-10-16T07:56:58.641Z,99.90
2018-10-16T07:59:27.098Z,99.90
2018-10-16T08:01:55.464Z,99.90
2018-10-16T08:04:23.814Z,99.90
2018-10-16T08:06:52.205Z,99.90
2018-10-16T08:09:20.547Z,99.90
2018-10-16T08:11:48.909Z,99.90
2018-10-16T08:14:17.372Z,99.90
2018-10-16T08:16:45.728Z,99.90
2018-10-16T08:19:14.105Z,99.90
2018-10-16T08:21:42.475Z,99.90
2018-10-16T08:24:10.819Z,99.90
2018-10-16T08:26:39.226Z,99.90
2018-10-16T08:29:07.578Z,99.90
2018-10-16T08:31:35.935Z,99.90
2018-10-16T08:34:04.297Z,99.90
2018-10-16T08:36:32.810Z,99.90
2018-10-16T08:39:01.036Z,99.90
2018-10-16T08:41:29.415Z,99.90
2018-10-16T08:44:01.530Z,99.90
2018-10-16T08:52:35.576Z,99.90
2018-10-16T08:55:04.055Z,99.90
2018-10-16T08:57:32.289Z,99.90
2018-10-16T09:00:00.647Z,99.90
2018-10-16T09:02:29.777Z,99.90
2018-10-16T09:04:58.149Z,99.90
2018-10-16T09:07:26.647Z,99.90
2018-10-16T09:09:55.047Z,99.90
2018-10-16T09:12:23.403Z,99.90
2018-10-16T09:14:51.806Z,99.90
2018-10-16T09:17:20.694Z,99.90
2018-10-16T09:19:49.068Z,99.90
2018-10-16T09:22:17.413Z,99.90
2018-10-16T09:24:45.895Z,99.90
2018-10-16T09:27:14.918Z,99.90
2018-10-16T09:29:43.296Z,99.90
2018-10-16T09:32:11.702Z,99.90
2018-10-16T09:34:40.154Z,99.90
2018-10-16T09:37:08.484Z,99.90
2018-10-16T09:39:37.643Z,99.90
2018-10-16T09:42:06.032Z,99.90
2018-10-16T09:44:34.489Z,99.90
2018-10-16T09:47:03.164Z,99.90
2018-10-16T09:49:31.592Z,99.90
2018-10-16T09:51:59.872Z,99.90
2018-10-16T09:54:28.214Z,99.90
2018-10-16T09:56:56.589Z,99.90
2018-10-16T09:59:24.945Z,99.90
2018-10-16T10:01:53.320Z,99.90
2018-10-16T10:04:21.703Z,99.90
2018-10-16T10:06:50.067Z,99.90
2018-10-16T10:09:18.402Z,99.90
2018-10-16T10:11:46.789Z,99.90
2018-10-16T10:14:15.138Z,99.90
2018-10-16T10:16:43.502Z,99.90
2018-10-16T10:19:11.867Z,99.90
2018-10-16T10:21:40.996Z,99.90
2018-10-16T10:24:09.376Z,99.90
2018-10-16T10:26:37.765Z,99.90
2018-10-16T10:29:06.250Z,99.90
2018-10-16T10:31:34.616Z,99.90
2018-10-16T10:34:03.068Z,99.90
2018-10-16T10:36:32.134Z,99.90
2018-10-16T10:39:00.538Z,99.90
2018-10-16T10:41:29.712Z,99.90
2018-10-16T10:43:58.054Z,99.90
2018-10-16T10:46:26.500Z,99.90
2018-10-16T10:48:55.660Z,99.90
2018-10-16T10:51:24.260Z,99.90
2018-10-16T10:53:52.391Z,99.90
2018-10-16T10:56:20.759Z,99.90
2018-10-16T10:58:49.137Z,99.90
2018-10-16T11:01:17.559Z,99.90
2018-10-16T11:03:46.111Z,99.90
2018-10-16T11:06:14.621Z,99.90
2018-10-16T11:08:43.011Z,99.90
2018-10-16T11:11:11.386Z,99.90
2018-10-16T11:13:39.740Z,99.90
2018-10-16T11:16:08.138Z,99.90
2018-10-16T11:18:36.496Z,99.90
2018-10-16T11:21:05.011Z,99.90
2018-10-16T11:23:33.337Z,99.90
2018-10-16T11:26:01.718Z,99.90
2018-10-16T11:28:30.131Z,99.90
2018-10-16T11:30:58.526Z,99.90
2018-10-16T11:33:27.498Z,99.90
2018-10-16T11:35:55.986Z,99.90
2018-10-16T11:38:24.370Z,99.90
2018-10-16T11:40:52.784Z,99.90
2018-10-16T11:43:21.942Z,99.90
2018-10-16T11:45:51.050Z,99.90
2018-10-16T11:48:20.240Z,99.90
2018-10-16T11:50:48.590Z,99.90
2018-10-16T11:53:17.036Z,99.90
2018-10-16T11:55:45.410Z,99.90
2018-10-16T11:58:14.588Z,99.90
2018-10-16T12:00:42.960Z,99.90
2018-10-16T12:03:12.370Z,99.90
2018-10-16T12:05:40.730Z,99.90
2018-10-16T12:08:09.149Z,99.90
2018-10-16T12:10:37.532Z,99.90
2018-10-16T12:13:05.850Z,99.90
2018-10-16T12:15:34.265Z,99.90
2018-10-16T12:18:02.590Z,99.90
2018-10-16T12:20:30.952Z,98.60
2018-10-16T12:23:00.065Z,97.30
2018-10-16T12:25:28.479Z,97.30
2018-10-16T12:27:56.834Z,95.80
2018-10-16T12:30:25.192Z,95.80
2018-10-16T12:32:54.323Z,96.00
2018-10-16T12:35:22.691Z,96.00
2018-10-16T12:37:51.068Z,96.20
2018-10-16T12:40:19.517Z,96.60
2018-10-16T12:42:48.040Z,97.30
2018-10-16T12:45:16.389Z,97.70
2018-10-16T12:47:44.744Z,97.70
2018-10-16T12:50:13.113Z,99.10
2018-10-16T12:52:41.552Z,99.40
2018-10-16T12:55:10.012Z,99.90
2018-10-16T12:57:39.114Z,99.90
2018-10-16T13:00:08.391Z,99.90
2018-10-16T13:02:36.730Z,99.90
2018-10-16T13:05:05.181Z,99.90
2018-10-16T13:07:33.482Z,99.90
2018-10-16T13:10:01.869Z,99.90
2018-10-16T13:12:30.252Z,99.90
2018-10-16T13:14:58.611Z,99.90
2018-10-16T13:17:27.162Z,99.90
2018-10-16T13:19:55.509Z,99.90
2018-10-16T13:22:23.900Z,99.90
2018-10-16T13:24:53.049Z,99.90
2018-10-16T13:27:21.388Z,99.90
2018-10-16T13:29:50.556Z,99.90
2018-10-16T13:32:18.919Z,99.90
2018-10-16T13:34:48.204Z,99.90
2018-10-16T13:37:16.549Z,99.90
2018-10-16T13:39:45.644Z,99.90
2018-10-16T13:42:14.793Z,99.90
2018-10-16T13:44:43.130Z,99.90
2018-10-16T13:47:12.262Z,99.90
2018-10-16T13:49:40.588Z,99.90
2018-10-16T13:52:09.782Z,99.90
2018-10-16T13:54:38.121Z,99.90
2018-10-16T13:57:06.597Z,99.90
2018-10-16T13:59:34.947Z,99.90
2018-10-16T14:02:03.381Z,99.90
2018-10-16T14:04:31.718Z,99.90
2018-10-16T14:07:00.104Z,99.90
2018-10-16T14:09:28.492Z,99.90
2018-10-16T14:11:56.886Z,99.90
2018-10-16T14:14:25.240Z,99.90
2018-10-16T14:16:53.662Z,99.90
2018-10-16T14:19:22.744Z,99.90
2018-10-16T14:21:52.167Z,99.90
2018-10-16T14:24:20.472Z,99.90
2018-10-16T14:26:49.645Z,99.90
2018-10-16T14:29:18.126Z,99.90
2018-10-16T14:31:46.476Z,99.90
2018-10-16T14:34:15.387Z,99.90
2018-10-16T14:36:44.429Z,99.90
2018-10-16T14:39:12.784Z,99.90
2018-10-16T14:41:41.352Z,99.90
2018-10-16T14:44:10.005Z,99.90
2018-10-16T14:46:38.273Z,99.90
2018-10-16T14:49:06.639Z,99.90
2018-10-16T14:51:35.061Z,99.90
2018-10-16T14:54:03.445Z,99.90
2018-10-16T14:56:31.822Z,99.90
2018-10-16T14:59:00.272Z,99.90
2018-10-16T15:01:28.600Z,99.90
2018-10-16T15:03:57.882Z,99.90
2018-10-16T15:06:26.455Z,99.90
2018-10-16T15:08:54.804Z,99.90
2018-10-16T15:11:23.160Z,99.90
2018-10-16T15:13:52.649Z,99.90
2018-10-16T15:16:21.076Z,99.90
2018-10-16T15:18:49.619Z,99.90
2018-10-16T15:21:18.132Z,99.90
2018-10-16T15:23:47.771Z,99.90
2018-10-16T15:26:16.239Z,99.90
2018-10-16T15:28:44.582Z,99.90
2018-10-16T15:31:13.842Z,99.90
2018-10-16T15:33:42.232Z,99.90
2018-10-16T15:36:10.599Z,99.90
2018-10-16T15:38:38.924Z,99.90
2018-10-16T15:41:08.076Z,99.90
2018-10-16T15:43:36.398Z,99.90
2018-10-16T15:46:04.823Z,99.90
2018-10-16T15:48:33.235Z,99.90
2018-10-16T15:51:01.581Z,99.90
2018-10-16T15:53:29.975Z,99.90
2018-10-16T15:55:58.380Z,99.90
2018-10-16T15:58:26.870Z,99.90
2018-10-16T16:00:55.364Z,99.90
2018-10-16T16:03:24.503Z,99.90
2018-10-16T16:05:52.887Z,99.90
2018-10-16T16:08:21.240Z,99.90
2018-10-16T16:10:49.644Z,99.90
2018-10-16T16:13:18.017Z,99.90
2018-10-16T16:15:46.540Z,99.90
2018-10-16T16:18:14.934Z,99.90
2018-10-16T16:20:43.292Z,99.90
2018-10-16T16:23:11.678Z,99.90
2018-10-16T16:25:40.074Z,99.90
2018-10-16T16:28:08.401Z,99.90
2018-10-16T16:30:36.812Z,99.90
2018-10-16T16:33:05.177Z,99.90
2018-10-16T16:35:33.553Z,99.90
2018-10-16T16:38:01.971Z,99.90
2018-10-16T16:40:30.485Z,99.90
2018-10-16T16:42:58.877Z,99.90
2018-10-16T16:45:27.301Z,99.90
2018-10-16T16:47:55.716Z,99.90
2018-10-16T16:50:24.859Z,99.90
2018-10-16T16:52:53.251Z,99.90
2018-10-16T16:55:21.685Z,99.90
2018-10-16T16:57:50.099Z,99.90
2018-10-16T17:00:18.559Z,99.90
2018-10-16T17:02:47.013Z,99.90
2018-10-16T17:05:16.233Z,99.90
2018-10-16T17:07:44.783Z,99.90
2018-10-16T17:10:13.271Z,99.90
2018-10-16T17:12:41.526Z,99.90
2018-10-16T17:15:09.876Z,99.90
2018-10-16T17:17:38.287Z,99.90
2018-10-16T17:20:06.754Z,99.90
2018-10-16T17:22:35.171Z,99.90
2018-10-16T17:25:03.684Z,99.90
2018-10-16T17:27:31.966Z,99.90
2018-10-16T17:30:00.366Z,99.90
2018-10-16T17:32:28.736Z,99.90
2018-10-16T17:34:57.282Z,99.90
2018-10-16T17:37:25.631Z,99.90
2018-10-16T17:39:54.764Z,99.90
2018-10-16T17:42:23.184Z,99.90
2018-10-16T17:44:51.629Z,99.90
2018-10-16T17:47:19.989Z,99.90
2018-10-16T17:49:48.418Z,99.90
2018-10-16T17:52:16.798Z,99.90
2018-10-16T17:54:45.140Z,99.90
2018-10-16T17:57:13.526Z,99.90
2018-10-16T17:59:41.934Z,99.90
2018-10-16T18:02:10.281Z,99.90
2018-10-16T18:04:38.716Z,99.90
2018-10-16T18:07:07.043Z,99.90
2018-10-16T18:09:35.402Z,99.90
2018-10-16T18:12:03.769Z,99.90
2018-10-16T18:14:32.892Z,99.90
2018-10-16T18:17:01.326Z,99.90
2018-10-16T18:19:29.751Z,99.90
2018-10-16T18:21:58.120Z,99.90
2018-10-16T18:24:26.587Z,99.90
2018-10-16T18:26:55.815Z,99.90
2018-10-16T18:29:24.201Z,99.90
2018-10-16T18:31:52.587Z,99.90
2018-10-16T18:34:21.554Z,99.90
2018-10-16T18:36:50.200Z,99.90
2018-10-16T18:39:18.642Z,99.90
2018-10-16T18:41:46.974Z,99.90
2018-10-16T18:44:16.131Z,99.90
2018-10-16T18:46:44.517Z,99.90
2018-10-16T18:49:12.891Z,99.90
2018-10-16T18:51:41.296Z,99.90
2018-10-16T18:54:09.669Z,99.90
2018-10-16T18:56:38.391Z,99.90
2018-10-16T18:59:06.838Z,99.90
2018-10-16T19:01:35.241Z,99.90
2018-10-16T19:04:03.661Z,99.90
2018-10-16T19:06:32.063Z,99.90
2018-10-16T19:09:00.442Z,99.90
2018-10-16T19:11:28.807Z,99.90
2018-10-16T19:13:57.245Z,99.90
2018-10-16T19:16:25.547Z,99.90
2018-10-16T19:18:53.937Z,99.90
2018-10-16T19:21:22.312Z,99.90
2018-10-16T19:23:50.692Z,99.90
2018-10-16T19:26:19.041Z,99.90
2018-10-16T19:28:48.322Z,99.90
2018-10-16T19:31:16.748Z,99.90
2018-10-16T19:33:45.085Z,99.90
2018-10-16T19:36:13.445Z,99.90
2018-10-16T19:38:41.826Z,99.90
2018-10-16T19:41:10.204Z,99.90
2018-10-16T19:43:38.598Z,99.90
2018-10-16T19:46:07.733Z,99.90
2018-10-16T19:48:36.147Z,99.90
2018-10-16T19:51:04.648Z,99.90
2018-10-16T19:53:32.946Z,99.90
2018-10-16T19:56:01.299Z,99.90
2018-10-16T19:58:29.764Z,99.90
2018-10-16T20:00:58.332Z,99.90
2018-10-16T20:03:26.665Z,99.90
2018-10-16T20:05:55.900Z,99.90
2018-10-16T20:08:24.435Z,99.90
2018-10-16T20:10:53.697Z,99.90
2018-10-16T20:13:22.088Z,99.90
2018-10-16T20:15:50.592Z,99.90
2018-10-16T20:18:18.952Z,99.90
2018-10-16T20:20:47.357Z,99.90
2018-10-16T20:23:16.561Z,99.90
2018-10-16T20:25:44.886Z,99.90
2018-10-16T20:28:13.273Z,99.90
2018-10-16T20:30:41.666Z,99.90
2018-10-16T20:33:10.039Z,99.90
2018-10-16T20:35:38.520Z,99.90
2018-10-16T20:38:06.901Z,99.90
2018-10-16T20:40:35.238Z,99.90
2018-10-16T20:43:03.673Z,99.90
2018-10-16T20:45:32.025Z,99.90
2018-10-16T20:48:00.404Z,99.90
2018-10-16T20:50:28.766Z,99.90
2018-10-16T20:52:57.153Z,99.90
2018-10-16T20:55:25.684Z,99.90
2018-10-16T20:57:54.026Z,99.90
2018-10-16T21:00:22.450Z,99.90
2018-10-16T21:02:50.837Z,99.90
2018-10-16T21:05:19.401Z,99.90
2018-10-16T21:07:48.449Z,99.90
2018-10-16T21:10:16.797Z,99.90
2018-10-16T21:12:45.234Z,99.90
2018-10-16T21:15:13.614Z,99.90
2018-10-16T21:17:41.926Z,99.90
2018-10-16T21:20:10.477Z,99.90
2018-10-16T21:22:38.824Z,99.90
2018-10-16T21:25:07.233Z,99.90
2018-10-16T21:27:35.514Z,99.90
2018-10-16T21:30:03.995Z,99.90
2018-10-16T21:32:32.328Z,99.90
2018-10-16T21:35:01.516Z,99.90
2018-10-16T21:37:29.848Z,99.90
2018-10-16T21:39:58.204Z,99.90
2018-10-16T21:42:26.539Z,99.90
2018-10-16T21:44:54.991Z,99.90
2018-10-16T21:47:23.340Z,99.90
2018-10-16T21:49:51.758Z,99.90
2018-10-16T21:52:20.076Z,99.90
2018-10-16T21:54:49.211Z,99.90
2018-10-16T21:57:17.553Z,99.90
2018-10-16T21:59:46.695Z,99.90
2018-10-16T22:02:15.042Z,99.90
2018-10-16T22:04:44.167Z,99.90
2018-10-16T22:07:12.584Z,99.90
2018-10-16T22:09:40.898Z,99.90
2018-10-16T22:12:09.257Z,99.90
2018-10-16T22:14:39.331Z,99.90
2018-10-16T22:17:07.681Z,99.90
2018-10-16T22:19:36.054Z,99.90
2018-10-16T22:22:04.412Z,99.90
2018-10-16T22:24:32.793Z,99.90
2018-10-16T22:27:01.178Z,99.90
2018-10-16T22:29:30.281Z,99.90
2018-10-16T22:31:59.416Z,99.90
2018-10-16T22:34:27.799Z,99.90
2018-10-16T22:36:56.223Z,99.90
2018-10-16T22:39:24.503Z,99.90
2018-10-16T22:41:53.635Z,99.90
2018-10-16T22:44:21.983Z,99.90
2018-10-16T22:46:51.076Z,99.90
2018-10-16T22:49:20.247Z,99.90
2018-10-16T22:51:48.599Z,99.90
2018-10-16T22:54:16.980Z,99.90
2018-10-16T22:56:45.357Z,99.90
2018-10-16T22:59:13.898Z,99.90
2018-10-16T23:01:42.213Z,99.90
2018-10-16T23:04:10.573Z,99.90
2018-10-16T23:06:38.954Z,99.90
2018-10-16T23:09:07.372Z,99.90
2018-10-16T23:11:35.745Z,99.90
2018-10-16T23:14:04.815Z,99.90
2018-10-16T23:16:33.142Z,99.90
2018-10-16T23:19:01.549Z,99.90
2018-10-16T23:21:29.854Z,99.90
2018-10-16T23:23:58.230Z,99.90
2018-10-16T23:26:26.597Z,99.90
2018-10-16T23:28:55.822Z,99.90
2018-10-16T23:31:24.113Z,99.90
2018-10-16T23:33:52.488Z,99.90
2018-10-16T23:36:20.892Z,99.90
2018-10-16T23:38:49.262Z,99.90
2018-10-16T23:41:17.728Z,99.90
2018-10-16T23:43:46.035Z,99.90
2018-10-16T23:46:14.414Z,99.90
2018-10-16T23:48:42.765Z,99.90
2018-10-16T23:51:11.148Z,99.90
2018-10-16T23:53:39.513Z,99.90
2018-10-16T23:56:07.899Z,99.90
2018-10-16T23:58:36.269Z,99.90
